Time,TemperatureF,DewpointF,PressureIn,WindDirection,WindDirectionDegrees,WindSpeedMPH,WindSpeedGustMPH,Humidity,HourlyPrecipIn,Conditions,Clouds,dailyrainin,SoftwareType,DateUTC
2013-05-28 00:01:00,50.4,45.3,30.36,ESE,122,0.0,0.0,83,0.00,,,0.00,meteohub,2013-05-28 04:01:00,
2013-05-28 00:06:00,50.4,45.3,30.36,ESE,122,0.0,0.0,83,0.00,,,0.00,meteohub,2013-05-28 04:06:00,
2013-05-28 00:11:00,50.4,45.3,30.36,ESE,122,0.0,0.0,83,0.00,,,0.00,meteohub,2013-05-28 04:11:00,
2013-05-28 00:16:00,50.2,45.1,30.36,ESE,122,0.0,0.0,83,0.00,,,0.00,meteohub,2013-05-28 04:16:00,
2013-05-28 00:21:00,49.8,45.1,30.36,ESE,122,0.0,0.0,84,0.00,,,0.00,meteohub,2013-05-28 04:21:00,
2013-05-28 00:26:00,49.6,45.3,30.36,ESE,122,0.0,0.0,85,0.00,,,0.00,meteohub,2013-05-28 04:26:00,
2013-05-28 00:31:00,49.5,45.5,30.36,ESE,123,0.0,0.0,86,0.00,,,0.00,meteohub,2013-05-28 04:31:00,
2013-05-28 00:36:00,49.3,45.3,30.36,ESE,122,0.0,0.0,86,0.00,,,0.00,meteohub,2013-05-28 04:36:00,
2013-05-28 00:42:00,49.3,45.5,30.36,ESE,123,0.0,0.0,87,0.00,,,0.00,meteohub,2013-05-28 04:42:00,
2013-05-28 00:47:00,49.3,45.5,30.36,ESE,122,0.0,0.0,87,0.00,,,0.00,meteohub,2013-05-28 04:47:00,
2013-05-28 00:52:00,49.1,45.3,30.36,ESE,122,0.0,0.0,87,0.00,,,0.00,meteohub,2013-05-28 04:52:00,
2013-05-28 00:57:00,49.1,45.1,30.36,ESE,123,0.0,0.0,86,0.00,,,0.00,meteohub,2013-05-28 04:57:00,
2013-05-28 01:02:00,49.1,45.1,30.36,ESE,123,0.0,0.0,86,0.00,,,0.00,meteohub,2013-05-28 05:02:00,
2013-05-28 01:07:00,49.1,45.1,30.37,ESE,122,0.0,0.0,86,0.00,,,0.00,meteohub,2013-05-28 05:07:00,
2013-05-28 01:12:00,48.9,45.0,30.37,ESE,122,0.0,0.0,86,0.00,,,0.00,meteohub,2013-05-28 05:12:00,
2013-05-28 01:17:00,48.9,45.0,30.37,ESE,122,0.0,0.0,86,0.00,,,0.00,meteohub,2013-05-28 05:17:00,
2013-05-28 01:22:00,48.9,45.0,30.38,ESE,123,0.0,0.0,86,0.00,,,0.00,meteohub,2013-05-28 05:22:00,
2013-05-28 01:27:00,48.9,45.0,30.37,ESE,123,0.0,0.0,86,0.00,,,0.00,meteohub,2013-05-28 05:27:00,
2013-05-28 01:32:00,48.7,44.8,30.37,ESE,123,0.0,0.0,86,0.00,,,0.00,meteohub,2013-05-28 05:32:00,
2013-05-28 01:37:00,48.6,44.8,30.37,ESE,122,0.0,0.0,87,0.00,,,0.00,meteohub,2013-05-28 05:37:00,
2013-05-28 01:42:00,48.4,44.4,30.37,ESE,122,0.0,0.0,86,0.00,,,0.00,meteohub,2013-05-28 05:42:00,
2013-05-28 01:47:00,48.4,44.4,30.37,ESE,122,0.0,0.0,86,0.00,,,0.00,meteohub,2013-05-28 05:47:00,
2013-05-28 01:52:00,48.0,44.1,30.37,ESE,122,0.0,0.0,86,0.00,,,0.00,meteohub,2013-05-28 05:52:00,
2013-05-28 01:57:00,47.8,44.2,30.37,ESE,122,0.0,0.0,87,0.00,,,0.00,meteohub,2013-05-28 05:57:00,
2013-05-28 02:02:00,47.8,44.2,30.37,ESE,122,0.0,0.0,87,0.00,,,0.00,meteohub,2013-05-28 06:02:00,
2013-05-28 02:07:00,47.7,44.1,30.37,ESE,122,0.0,0.0,87,0.00,,,0.00,meteohub,2013-05-28 06:07:00,
2013-05-28 02:12:00,47.7,44.2,30.38,ESE,122,0.0,0.0,88,0.00,,,0.00,meteohub,2013-05-28 06:12:00,
2013-05-28 02:17:00,47.7,44.1,30.38,ESE,122,0.0,0.0,87,0.00,,,0.00,meteohub,2013-05-28 06:17:00,
2013-05-28 02:22:00,47.7,44.1,30.37,ESE,122,0.0,0.0,87,0.00,,,0.00,meteohub,2013-05-28 06:22:00,
2013-05-28 02:27:00,47.7,43.7,30.37,ESE,122,0.0,0.0,86,0.00,,,0.00,meteohub,2013-05-28 06:27:00,
2013-05-28 02:32:00,47.8,43.5,30.37,ESE,122,0.0,0.0,85,0.00,,,0.00,meteohub,2013-05-28 06:32:00,
2013-05-28 02:37:00,48.0,43.2,30.37,ESE,122,0.0,0.0,83,0.00,,,0.00,meteohub,2013-05-28 06:37:00,
2013-05-28 02:42:00,48.4,43.2,30.37,ESE,123,0.0,0.0,82,0.00,,,0.00,meteohub,2013-05-28 06:42:00,
2013-05-28 02:47:00,48.6,43.3,30.37,ESE,122,0.0,0.0,82,0.00,,,0.00,meteohub,2013-05-28 06:47:00,
2013-05-28 02:52:00,48.7,43.2,30.37,ESE,122,0.0,0.0,81,0.00,,,0.00,meteohub,2013-05-28 06:52:00,
2013-05-28 02:57:00,48.7,43.2,30.37,ESE,122,0.0,0.0,81,0.00,,,0.00,meteohub,2013-05-28 06:57:00,
2013-05-28 03:02:00,48.9,44.1,30.37,SE,126,0.0,0.0,83,0.00,,,0.00,meteohub,2013-05-28 07:02:00,
2013-05-28 03:07:00,48.7,44.1,30.37,SE,126,0.0,0.0,84,0.00,,,0.00,meteohub,2013-05-28 07:07:00,
2013-05-28 03:12:00,48.7,44.1,30.37,SE,125,0.0,0.0,84,0.00,,,0.00,meteohub,2013-05-28 07:12:00,
2013-05-28 03:17:00,48.6,43.7,30.37,SE,126,0.0,0.0,83,0.00,,,0.00,meteohub,2013-05-28 07:17:00,
2013-05-28 03:22:00,48.4,43.2,30.37,SE,124,0.0,0.0,82,0.00,,,0.00,meteohub,2013-05-28 07:22:00,
2013-05-28 03:27:00,48.4,43.2,30.37,SE,126,0.0,0.0,82,0.00,,,0.00,meteohub,2013-05-28 07:27:00,
2013-05-28 03:32:00,48.2,43.0,30.36,SE,126,0.0,0.0,82,0.00,,,0.00,meteohub,2013-05-28 07:32:00,
2013-05-28 03:37:00,48.0,43.2,30.36,ESE,122,0.0,0.0,83,0.00,,,0.00,meteohub,2013-05-28 07:37:00,
2013-05-28 03:42:00,48.0,43.2,30.36,ESE,123,0.0,0.0,83,0.00,,,0.00,meteohub,2013-05-28 07:42:00,
2013-05-28 03:47:00,48.0,43.2,30.36,ESE,122,0.0,0.0,83,0.00,,,0.00,meteohub,2013-05-28 07:47:00,
2013-05-28 03:52:00,48.2,42.6,30.36,ESE,122,0.0,0.0,81,0.00,,,0.00,meteohub,2013-05-28 07:52:00,
2013-05-28 03:57:00,48.2,42.6,30.36,ESE,122,0.0,0.0,81,0.00,,,0.00,meteohub,2013-05-28 07:57:00,
2013-05-28 04:02:00,48.0,42.8,30.36,ESE,122,0.0,0.0,82,0.00,,,0.00,meteohub,2013-05-28 08:02:00,
2013-05-28 04:07:00,47.8,42.3,30.37,ESE,122,0.0,0.0,81,0.00,,,0.00,meteohub,2013-05-28 08:07:00,
2013-05-28 04:12:00,47.8,42.3,30.37,ESE,123,0.0,0.0,81,0.00,,,0.00,meteohub,2013-05-28 08:12:00,
2013-05-28 04:17:00,47.8,40.3,30.37,ESE,122,0.0,0.0,75,0.00,,,0.00,meteohub,2013-05-28 08:17:00,
2013-05-28 04:22:00,47.8,41.7,30.37,ESE,122,0.0,0.0,79,0.00,,,0.00,meteohub,2013-05-28 08:22:00,
2013-05-28 04:27:00,47.8,41.4,30.37,ESE,122,0.0,0.0,78,0.00,,,0.00,meteohub,2013-05-28 08:27:00,
2013-05-28 04:32:00,47.8,41.7,30.37,ESE,122,0.0,0.0,79,0.00,,,0.00,meteohub,2013-05-28 08:32:00,
2013-05-28 04:37:00,48.0,42.8,30.37,ESE,122,0.0,0.0,82,0.00,,,0.00,meteohub,2013-05-28 08:37:00,
2013-05-28 04:42:00,48.0,41.9,30.37,ESE,122,0.0,0.0,79,0.00,,,0.00,meteohub,2013-05-28 08:42:00,
2013-05-28 04:48:00,47.8,41.7,30.37,ESE,122,0.0,0.0,79,0.00,,,0.00,meteohub,2013-05-28 08:48:00,
2013-05-28 04:53:00,47.8,40.3,30.37,ESE,122,0.0,0.0,75,0.00,,,0.00,meteohub,2013-05-28 08:53:00,
2013-05-28 04:58:00,47.8,39.9,30.37,ESE,122,0.0,0.0,74,0.00,,,0.00,meteohub,2013-05-28 08:58:00,
2013-05-28 05:03:00,47.7,40.1,30.37,ESE,122,0.0,0.0,75,0.00,,,0.00,meteohub,2013-05-28 09:03:00,
2013-05-28 05:08:00,47.7,40.5,30.38,ESE,122,0.0,0.0,76,0.00,,,0.00,meteohub,2013-05-28 09:08:00,
2013-05-28 05:13:00,47.7,41.5,30.38,ESE,122,0.0,0.0,79,0.00,,,0.00,meteohub,2013-05-28 09:13:00,
2013-05-28 05:18:00,47.5,41.0,30.38,ESE,123,0.0,0.0,78,0.00,,,0.00,meteohub,2013-05-28 09:18:00,
2013-05-28 05:23:00,47.5,41.0,30.38,ESE,123,0.0,0.0,78,0.00,,,0.00,meteohub,2013-05-28 09:23:00,
2013-05-28 05:28:00,47.7,40.8,30.38,ESE,122,0.0,0.0,77,0.00,,,0.00,meteohub,2013-05-28 09:28:00,
2013-05-28 05:33:00,47.5,40.6,30.38,ESE,122,0.0,0.0,77,0.00,,,0.00,meteohub,2013-05-28 09:33:00,
2013-05-28 05:38:00,47.5,40.3,30.38,ESE,122,0.0,0.0,76,0.00,,,0.00,meteohub,2013-05-28 09:38:00,
2013-05-28 05:43:00,47.8,40.3,30.38,ESE,122,0.0,0.0,75,0.00,,,0.00,meteohub,2013-05-28 09:43:00,
2013-05-28 05:48:00,48.4,39.4,30.38,ESE,122,0.0,0.0,71,0.00,,,0.00,meteohub,2013-05-28 09:48:00,
2013-05-28 05:52:00,48.9,39.6,30.38,ESE,123,0.0,0.0,70,0.00,,,0.00,meteohub,2013-05-28 09:52:00,
2013-05-28 05:57:00,49.5,39.4,30.38,ESE,122,0.0,0.0,68,0.00,,,0.00,meteohub,2013-05-28 09:57:00,
2013-05-28 06:02:00,49.8,40.1,30.38,ESE,122,0.0,0.0,69,0.00,,,0.00,meteohub,2013-05-28 10:02:00,
2013-05-28 06:07:00,50.0,39.9,30.38,ESE,123,0.0,0.0,68,0.00,,,0.00,meteohub,2013-05-28 10:07:00,
2013-05-28 06:12:00,50.2,40.1,30.38,ESE,123,0.0,0.0,68,0.00,,,0.00,meteohub,2013-05-28 10:12:00,
2013-05-28 06:17:00,50.4,40.6,30.38,ESE,122,0.0,0.0,69,0.00,,,0.00,meteohub,2013-05-28 10:17:00,
2013-05-28 06:22:00,50.5,40.8,30.38,ESE,122,0.0,0.0,69,0.00,,,0.00,meteohub,2013-05-28 10:22:00,
2013-05-28 06:27:00,50.7,41.0,30.39,ESE,122,0.0,0.0,69,0.00,,,0.00,meteohub,2013-05-28 10:27:00,
2013-05-28 06:33:00,51.3,43.3,30.39,ESE,122,0.0,0.0,74,0.00,,,0.00,meteohub,2013-05-28 10:33:00,
2013-05-28 06:38:00,51.3,43.3,30.39,ESE,122,0.0,0.0,74,0.00,,,0.00,meteohub,2013-05-28 10:38:00,
2013-05-28 06:43:00,51.4,41.9,30.39,ESE,123,0.0,0.0,70,0.00,,,0.00,meteohub,2013-05-28 10:43:00,
2013-05-28 06:48:00,51.8,43.7,30.39,ESE,123,0.0,0.0,74,0.00,,,0.00,meteohub,2013-05-28 10:48:00,
2013-05-28 06:53:00,52.0,44.2,30.39,ESE,122,0.0,0.0,75,0.00,,,0.00,meteohub,2013-05-28 10:53:00,
2013-05-28 06:58:00,52.0,44.2,30.39,ESE,123,0.0,0.0,75,0.00,,,0.00,meteohub,2013-05-28 10:58:00,
2013-05-28 07:03:00,52.2,45.1,30.39,ESE,122,0.0,0.0,77,0.00,,,0.00,meteohub,2013-05-28 11:03:00,
2013-05-28 07:08:00,52.3,44.2,30.40,ESE,123,0.0,0.0,74,0.00,,,0.00,meteohub,2013-05-28 11:08:00,
2013-05-28 07:13:00,52.5,45.9,30.40,ESE,122,0.0,0.0,78,0.00,,,0.00,meteohub,2013-05-28 11:13:00,
2013-05-28 07:18:00,52.5,45.1,30.40,ESE,122,0.0,0.0,76,0.00,,,0.00,meteohub,2013-05-28 11:18:00,
2013-05-28 07:23:00,52.9,45.9,30.40,ESE,122,0.0,0.0,77,0.00,,,0.00,meteohub,2013-05-28 11:23:00,
2013-05-28 07:28:00,53.1,46.4,30.40,ESE,123,0.0,0.0,78,0.00,,,0.00,meteohub,2013-05-28 11:28:00,
2013-05-28 07:33:00,53.2,46.6,30.40,ESE,123,0.0,0.0,78,0.00,,,0.00,meteohub,2013-05-28 11:33:00,
2013-05-28 07:38:00,53.4,47.5,30.40,ESE,122,0.0,0.0,80,0.00,,,0.00,meteohub,2013-05-28 11:38:00,
2013-05-28 07:43:00,53.6,47.3,30.40,ESE,123,0.0,0.0,79,0.00,,,0.00,meteohub,2013-05-28 11:43:00,
2013-05-28 07:48:00,53.8,47.8,30.40,ESE,122,0.0,0.0,80,0.00,,,0.00,meteohub,2013-05-28 11:48:00,
2013-05-28 07:53:00,54.0,48.0,30.40,ESE,122,0.0,0.0,80,0.00,,,0.00,meteohub,2013-05-28 11:53:00,
2013-05-28 07:58:00,54.3,48.2,30.40,ESE,122,0.0,0.0,80,0.00,,,0.00,meteohub,2013-05-28 11:58:00,
2013-05-28 08:03:00,54.5,48.7,30.40,ESE,123,0.0,0.0,81,0.00,,,0.00,meteohub,2013-05-28 12:03:00,
2013-05-28 08:08:00,54.9,49.5,30.40,ESE,123,0.0,0.0,82,0.00,,,0.00,meteohub,2013-05-28 12:08:00,
2013-05-28 08:13:00,55.2,49.5,30.40,ESE,122,0.0,0.0,81,0.00,,,0.00,meteohub,2013-05-28 12:13:00,
2013-05-28 08:18:00,55.6,49.5,30.40,ESE,122,0.0,0.0,80,0.00,,,0.00,meteohub,2013-05-28 12:18:00,
2013-05-28 08:23:00,55.9,48.2,30.40,ESE,123,0.0,0.0,75,0.00,,,0.00,meteohub,2013-05-28 12:23:00,
2013-05-28 08:28:00,56.7,49.5,30.40,ESE,123,0.0,0.0,77,0.00,,,0.00,meteohub,2013-05-28 12:28:00,
2013-05-28 08:33:00,57.6,49.6,30.40,SE,134,0.0,0.0,75,0.00,,,0.00,meteohub,2013-05-28 12:33:00,
2013-05-28 08:38:00,58.6,48.9,30.40,South,190,0.0,0.0,70,0.00,,,0.00,meteohub,2013-05-28 12:38:00,
2013-05-28 08:43:00,59.7,47.1,30.40,SSE,155,0.0,0.0,63,0.00,,,0.00,meteohub,2013-05-28 12:43:00,
2013-05-28 08:48:00,61.0,47.5,30.40,SSW,212,2.0,0.0,61,0.00,,,0.00,meteohub,2013-05-28 12:48:00,
2013-05-28 08:53:00,61.9,47.5,30.40,SE,136,0.0,3.0,59,0.00,,,0.00,meteohub,2013-05-28 12:53:00,
2013-05-28 08:58:00,62.8,47.8,30.40,SSW,197,1.0,3.0,58,0.00,,,0.00,meteohub,2013-05-28 12:58:00,
2013-05-28 09:03:00,63.5,46.6,30.40,West,270,0.0,3.0,54,0.00,,,0.00,meteohub,2013-05-28 13:03:00,
2013-05-28 09:08:00,64.0,46.6,30.41,SSW,195,1.0,2.0,53,0.00,,,0.00,meteohub,2013-05-28 13:08:00,
2013-05-28 09:13:00,64.0,46.6,30.41,SSE,167,2.0,5.0,53,0.00,,,0.00,meteohub,2013-05-28 13:13:00,
2013-05-28 09:18:00,64.6,47.1,30.40,SSW,194,3.0,5.0,53,0.00,,,0.00,meteohub,2013-05-28 13:18:00,
2013-05-28 09:23:00,64.9,47.5,30.40,SW,221,0.0,3.0,53,0.00,,,0.00,meteohub,2013-05-28 13:23:00,
2013-05-28 09:29:00,65.5,46.9,30.40,SSW,212,0.0,3.0,51,0.00,,,0.00,meteohub,2013-05-28 13:29:00,
2013-05-28 09:34:00,65.5,45.3,30.40,ESE,113,0.0,3.0,48,0.00,,,0.00,meteohub,2013-05-28 13:34:00,
2013-05-28 09:39:00,65.8,46.8,30.40,SW,221,0.0,1.0,50,0.00,,,0.00,meteohub,2013-05-28 13:39:00,
2013-05-28 09:44:00,67.1,49.5,30.40,SSW,210,1.0,2.0,53,0.00,,,0.00,meteohub,2013-05-28 13:44:00,
2013-05-28 09:49:00,67.5,46.6,30.40,SSW,203,0.0,2.0,47,0.00,,,0.00,meteohub,2013-05-28 13:49:00,
2013-05-28 09:54:00,68.2,49.3,30.40,SSW,195,0.0,3.0,51,0.00,,,0.00,meteohub,2013-05-28 13:54:00,
2013-05-28 09:59:00,68.7,46.6,30.40,SSE,148,1.0,3.0,45,0.00,,,0.00,meteohub,2013-05-28 13:59:00,
2013-05-28 10:04:00,68.9,44.2,30.40,SSE,151,3.0,3.0,41,0.00,,,0.00,meteohub,2013-05-28 14:04:00,
2013-05-28 10:09:00,68.5,43.9,30.40,SSW,213,0.0,5.0,41,0.00,,,0.00,meteohub,2013-05-28 14:09:00,
2013-05-28 10:14:00,68.5,45.1,30.41,SW,215,1.0,5.0,43,0.00,,,0.00,meteohub,2013-05-28 14:14:00,
2013-05-28 10:19:00,69.1,45.0,30.41,East,84,2.0,5.0,42,0.00,,,0.00,meteohub,2013-05-28 14:19:00,
2013-05-28 10:24:00,69.3,45.1,30.41,SSE,155,2.0,3.0,42,0.00,,,0.00,meteohub,2013-05-28 14:24:00,
2013-05-28 10:29:00,69.6,46.2,30.41,West,259,3.0,3.0,43,0.00,,,0.00,meteohub,2013-05-28 14:29:00,
2013-05-28 10:34:00,69.6,46.2,30.41,SSE,166,2.0,5.0,43,0.00,,,0.00,meteohub,2013-05-28 14:34:00,
2013-05-28 10:39:00,70.5,47.5,30.41,SW,236,0.0,5.0,44,0.00,,,0.00,meteohub,2013-05-28 14:39:00,
2013-05-28 10:44:00,70.9,46.6,30.41,West,278,1.0,5.0,42,0.00,,,0.00,meteohub,2013-05-28 14:44:00,
2013-05-28 10:49:00,70.5,45.7,30.41,NW,314,1.0,3.0,41,0.00,,,0.00,meteohub,2013-05-28 14:49:00,
2013-05-28 10:54:00,70.3,46.8,30.41,South,188,0.0,3.0,43,0.00,,,0.00,meteohub,2013-05-28 14:54:00,
2013-05-28 10:59:00,70.7,48.4,30.41,SW,221,1.0,5.0,45,0.00,,,0.00,meteohub,2013-05-28 14:59:00,
2013-05-28 11:04:00,70.9,46.6,30.41,West,264,1.0,5.0,42,0.00,,,0.00,meteohub,2013-05-28 15:04:00,
2013-05-28 11:09:00,70.3,45.0,30.41,ESE,102,0.0,5.0,40,0.00,,,0.00,meteohub,2013-05-28 15:09:00,
2013-05-28 11:14:00,70.0,45.9,30.41,East,84,2.0,5.0,42,0.00,,,0.00,meteohub,2013-05-28 15:14:00,
2013-05-28 11:19:00,69.8,45.0,30.41,East,95,0.0,5.0,41,0.00,,,0.00,meteohub,2013-05-28 15:19:00,
2013-05-28 11:24:00,70.0,45.9,30.41,ESE,105,0.0,5.0,42,0.00,,,0.00,meteohub,2013-05-28 15:24:00,
2013-05-28 11:29:00,69.8,45.7,30.41,ESE,114,2.0,5.0,42,0.00,,,0.00,meteohub,2013-05-28 15:29:00,
2013-05-28 11:34:00,69.6,46.2,30.41,SSW,204,1.0,4.0,43,0.00,,,0.00,meteohub,2013-05-28 15:34:00,
2013-05-28 11:39:00,69.6,46.2,30.41,West,271,0.0,5.0,43,0.00,,,0.00,meteohub,2013-05-28 15:39:00,
2013-05-28 11:44:00,70.0,46.4,30.41,ENE,77,0.0,5.0,43,0.00,,,0.00,meteohub,2013-05-28 15:44:00,
2013-05-28 11:49:00,69.6,49.1,30.41,SSW,212,0.0,5.0,48,0.00,,,0.00,meteohub,2013-05-28 15:49:00,
2013-05-28 11:54:00,69.4,47.1,30.41,West,278,2.0,5.0,45,0.00,,,0.00,meteohub,2013-05-28 15:54:00,
2013-05-28 11:59:00,68.7,48.7,30.41,SSW,204,0.0,5.0,49,0.00,,,0.00,meteohub,2013-05-28 15:59:00,
2013-05-28 12:04:00,68.2,46.6,30.41,WSW,252,0.0,5.0,46,0.00,,,0.00,meteohub,2013-05-28 16:04:00,
2013-05-28 12:09:00,68.0,46.9,30.41,NE,34,0.0,5.0,47,0.00,,,0.00,meteohub,2013-05-28 16:09:00,
2013-05-28 12:14:00,68.2,47.7,30.41,SE,129,5.0,5.0,48,0.00,,,0.00,meteohub,2013-05-28 16:14:00,
2013-05-28 12:19:00,68.2,47.1,30.41,SW,235,1.0,5.0,47,0.00,,,0.00,meteohub,2013-05-28 16:19:00,
2013-05-28 12:24:00,68.7,47.1,30.41,WSW,239,2.0,5.0,46,0.00,,,0.00,meteohub,2013-05-28 16:24:00,
2013-05-28 12:29:00,68.7,48.2,30.41,NE,44,0.0,5.0,48,0.00,,,0.00,meteohub,2013-05-28 16:29:00,
2013-05-28 12:34:00,69.4,49.5,30.41,West,259,0.0,3.0,49,0.00,,,0.00,meteohub,2013-05-28 16:34:00,
2013-05-28 12:40:00,70.2,48.4,30.40,WSW,256,0.0,3.0,46,0.00,,,0.00,meteohub,2013-05-28 16:40:00,
2013-05-28 12:45:00,70.9,49.6,30.40,NE,34,3.0,5.0,47,0.00,,,0.00,meteohub,2013-05-28 16:45:00,
2013-05-28 12:50:00,71.1,49.8,30.40,NNW,328,1.0,5.0,47,0.00,,,0.00,meteohub,2013-05-28 16:50:00,
2013-05-28 12:55:00,71.8,49.3,30.40,West,266,2.0,5.0,45,0.00,,,0.00,meteohub,2013-05-28 16:55:00,
2013-05-28 13:00:00,71.8,48.7,30.40,SSW,210,0.0,5.0,44,0.00,,,0.00,meteohub,2013-05-28 17:00:00,
2013-05-28 13:05:00,72.3,49.1,30.40,West,262,0.0,5.0,44,0.00,,,0.00,meteohub,2013-05-28 17:05:00,
2013-05-28 13:10:00,72.9,52.5,30.40,NNE,20,2.0,5.0,49,0.00,,,0.00,meteohub,2013-05-28 17:10:00,
2013-05-28 13:15:00,73.0,51.6,30.40,WSW,249,2.0,4.0,47,0.00,,,0.00,meteohub,2013-05-28 17:15:00,
2013-05-28 13:20:00,72.3,51.4,30.39,WSW,256,1.0,2.0,48,0.00,,,0.00,meteohub,2013-05-28 17:20:00,
2013-05-28 13:25:00,72.0,51.3,30.39,WSW,238,1.0,4.0,48,0.00,,,0.00,meteohub,2013-05-28 17:25:00,
2013-05-28 13:30:00,71.6,50.9,30.39,ESE,112,2.0,4.0,48,0.00,,,0.00,meteohub,2013-05-28 17:30:00,
2013-05-28 13:35:00,71.1,48.6,30.38,SW,215,1.0,7.0,45,0.00,,,0.00,meteohub,2013-05-28 17:35:00,
2013-05-28 13:40:00,71.2,51.1,30.38,West,281,1.0,7.0,49,0.00,,,0.00,meteohub,2013-05-28 17:40:00,
2013-05-28 13:45:00,70.5,50.9,30.38,West,270,1.0,7.0,50,0.00,,,0.00,meteohub,2013-05-28 17:45:00,
2013-05-28 13:50:00,70.2,51.8,30.38,SE,136,0.0,3.0,52,0.00,,,0.00,meteohub,2013-05-28 17:50:00,
2013-05-28 13:55:00,70.2,51.8,30.38,West,259,1.0,3.0,52,0.00,,,0.00,meteohub,2013-05-28 17:55:00,
2013-05-28 14:00:00,70.2,51.8,30.38,SE,128,0.0,3.0,52,0.00,,,0.00,meteohub,2013-05-28 18:00:00,
2013-05-28 14:05:00,69.6,50.7,30.38,SE,132,0.0,3.0,51,0.00,,,0.00,meteohub,2013-05-28 18:05:00,
2013-05-28 14:10:00,69.4,49.5,30.38,ESE,120,2.0,4.0,49,0.00,,,0.00,meteohub,2013-05-28 18:10:00,
2013-05-28 14:15:00,69.3,49.3,30.38,ESE,123,1.0,4.0,49,0.00,,,0.00,meteohub,2013-05-28 18:15:00,
2013-05-28 14:20:00,69.3,50.4,30.38,WNW,288,0.0,3.0,51,0.00,,,0.00,meteohub,2013-05-28 18:20:00,
2013-05-28 14:25:00,69.3,51.4,30.38,West,264,1.0,4.0,53,0.00,,,0.00,meteohub,2013-05-28 18:25:00,
2013-05-28 14:30:00,68.9,51.1,30.38,ESE,123,2.0,4.0,53,0.00,,,0.00,meteohub,2013-05-28 18:30:00,
2013-05-28 14:35:00,68.4,50.5,30.38,SE,132,0.0,4.0,53,0.00,,,0.00,meteohub,2013-05-28 18:35:00,
2013-05-28 14:40:00,67.8,51.1,30.38,WSW,256,1.0,5.0,55,0.00,,,0.00,meteohub,2013-05-28 18:40:00,
2013-05-28 14:45:00,67.8,51.6,30.38,ESE,120,0.0,5.0,56,0.00,,,0.00,meteohub,2013-05-28 18:45:00,
2013-05-28 14:50:00,67.8,51.6,30.38,West,267,0.0,5.0,56,0.00,,,0.00,meteohub,2013-05-28 18:50:00,
2013-05-28 14:55:00,67.6,50.9,30.38,SSE,154,0.0,3.0,55,0.00,,,0.00,meteohub,2013-05-28 18:55:00,
2013-05-28 15:00:00,66.9,51.3,30.38,East,89,0.0,3.0,57,0.00,,,0.00,meteohub,2013-05-28 19:00:00,
2013-05-28 15:05:00,66.6,50.9,30.38,ENE,77,1.0,3.0,57,0.00,,,0.00,meteohub,2013-05-28 19:05:00,
2013-05-28 15:10:00,66.6,51.8,30.38,SW,218,0.0,3.0,59,0.00,,,0.00,meteohub,2013-05-28 19:10:00,
2013-05-28 15:15:00,66.0,51.3,30.38,East,79,1.0,3.0,59,0.00,,,0.00,meteohub,2013-05-28 19:15:00,
2013-05-28 15:20:00,65.5,50.7,30.38,WSW,256,2.0,6.0,59,0.00,,,0.00,meteohub,2013-05-28 19:20:00,
2013-05-28 15:25:00,65.1,51.3,30.38,ENE,67,0.0,6.0,61,0.00,,,0.00,meteohub,2013-05-28 19:25:00,
2013-05-28 15:30:00,64.9,51.6,30.39,SSE,163,0.0,6.0,62,0.00,,,0.00,meteohub,2013-05-28 19:30:00,
2013-05-28 15:35:00,64.6,51.3,30.39,East,82,1.0,4.0,62,0.00,,,0.00,meteohub,2013-05-28 19:35:00,
2013-05-28 15:41:00,63.9,50.5,30.39,NE,46,0.0,7.0,62,0.00,,,0.00,meteohub,2013-05-28 19:41:00,
2013-05-28 15:45:00,63.5,50.7,30.39,North,6,1.0,7.0,63,0.00,,,0.00,meteohub,2013-05-28 19:45:00,
2013-05-28 15:51:00,63.1,51.3,30.39,NNE,32,0.0,2.0,65,0.00,,,0.00,meteohub,2013-05-28 19:51:00,
2013-05-28 15:56:00,62.8,52.0,30.39,North,350,0.0,2.0,68,0.00,,,0.00,meteohub,2013-05-28 19:56:00,
2013-05-28 16:01:00,62.2,52.0,30.39,NE,52,0.0,1.0,69,0.00,,,0.00,meteohub,2013-05-28 20:01:00,
2013-05-28 16:06:00,61.7,52.2,30.39,NNE,30,0.0,1.0,71,0.00,,,0.00,meteohub,2013-05-28 20:06:00,
2013-05-28 16:11:00,61.2,52.0,30.40,NNW,338,0.0,1.0,72,0.00,,,0.00,meteohub,2013-05-28 20:11:00,
2013-05-28 16:16:00,60.6,52.7,30.40,SW,229,0.0,2.0,75,0.00,,,0.00,meteohub,2013-05-28 20:16:00,
2013-05-28 16:21:00,60.3,53.1,30.39,SW,231,0.0,2.0,77,0.00,,,0.00,meteohub,2013-05-28 20:21:00,
2013-05-28 16:26:00,59.9,53.4,30.39,SW,229,0.0,2.0,79,0.00,,,0.00,meteohub,2013-05-28 20:26:00,
2013-05-28 16:31:00,59.4,53.6,30.39,SW,229,0.0,1.0,81,0.00,,,0.00,meteohub,2013-05-28 20:31:00,
2013-05-28 16:36:00,59.0,53.8,30.39,SW,229,0.0,1.0,83,0.01,,,0.01,meteohub,2013-05-28 20:36:00,
2013-05-28 16:41:00,58.6,53.8,30.39,SW,229,0.0,0.0,84,0.01,,,0.01,meteohub,2013-05-28 20:41:00,
2013-05-28 16:46:00,58.6,54.9,30.39,SW,229,0.0,0.0,87,0.01,,,0.01,meteohub,2013-05-28 20:46:00,
2013-05-28 16:51:00,58.5,54.7,30.39,SW,229,0.0,0.0,87,0.02,,,0.02,meteohub,2013-05-28 20:51:00,
2013-05-28 16:56:00,58.3,54.7,30.39,SW,235,0.0,0.0,88,0.02,,,0.02,meteohub,2013-05-28 20:56:00,
2013-05-28 17:01:00,57.9,54.3,30.39,WSW,257,2.0,2.0,88,0.02,,,0.02,meteohub,2013-05-28 21:01:00,
2013-05-28 17:06:00,57.7,54.1,30.38,West,263,0.0,2.0,88,0.02,,,0.02,meteohub,2013-05-28 21:06:00,
2013-05-28 17:11:00,57.6,54.3,30.38,SSW,205,0.0,2.0,89,0.02,,,0.02,meteohub,2013-05-28 21:11:00,
2013-05-28 17:16:00,57.0,53.4,30.38,SW,236,0.0,2.0,88,0.03,,,0.03,meteohub,2013-05-28 21:16:00,
2013-05-28 17:21:00,56.8,53.6,30.39,SW,225,2.0,2.0,89,0.03,,,0.03,meteohub,2013-05-28 21:21:00,
2013-05-28 17:26:00,56.5,53.2,30.39,West,259,0.0,5.0,89,0.03,,,0.03,meteohub,2013-05-28 21:26:00,
2013-05-28 17:31:00,56.1,52.9,30.39,ESE,115,0.0,5.0,89,0.02,,,0.03,meteohub,2013-05-28 21:31:00,
2013-05-28 17:36:00,55.9,53.1,30.39,SSE,148,0.0,5.0,90,0.02,,,0.03,meteohub,2013-05-28 21:36:00,
2013-05-28 17:41:00,55.9,53.1,30.38,SE,143,0.0,2.0,90,0.03,,,0.04,meteohub,2013-05-28 21:41:00,
2013-05-28 17:46:00,55.9,53.1,30.38,ESE,120,0.0,1.0,90,0.03,,,0.04,meteohub,2013-05-28 21:46:00,
2013-05-28 17:51:00,55.8,53.2,30.38,ESE,120,0.0,0.0,91,0.02,,,0.04,meteohub,2013-05-28 21:51:00,
2013-05-28 17:56:00,55.6,53.1,30.38,ESE,120,0.0,1.0,91,0.02,,,0.04,meteohub,2013-05-28 21:56:00,
2013-05-28 18:01:00,55.6,53.1,30.38,ESE,120,0.0,1.0,91,0.02,,,0.04,meteohub,2013-05-28 22:01:00,
2013-05-28 18:06:00,55.4,52.9,30.38,ESE,120,0.0,0.0,91,0.02,,,0.04,meteohub,2013-05-28 22:06:00,
2013-05-28 18:11:00,55.4,52.9,30.38,ESE,120,0.0,0.0,91,0.02,,,0.04,meteohub,2013-05-28 22:11:00,
2013-05-28 18:16:00,55.4,52.9,30.38,ESE,120,0.0,0.0,91,0.01,,,0.04,meteohub,2013-05-28 22:16:00,
2013-05-28 18:21:00,55.4,52.9,30.38,ESE,120,0.0,1.0,91,0.01,,,0.04,meteohub,2013-05-28 22:21:00,
2013-05-28 18:26:00,55.6,53.2,30.38,South,177,0.0,1.0,92,0.01,,,0.04,meteohub,2013-05-28 22:26:00,
2013-05-28 18:31:00,55.4,53.1,30.38,WSW,240,0.0,1.0,92,0.01,,,0.04,meteohub,2013-05-28 22:31:00,
2013-05-28 18:36:00,55.2,52.9,30.37,South,181,0.0,1.0,92,0.01,,,0.04,meteohub,2013-05-28 22:36:00,
2013-05-28 18:41:00,55.2,52.9,30.37,South,181,0.0,1.0,92,0.00,,,0.04,meteohub,2013-05-28 22:41:00,
2013-05-28 18:46:00,55.2,52.9,30.37,SE,130,0.0,1.0,92,0.00,,,0.04,meteohub,2013-05-28 22:46:00,
2013-05-28 18:52:00,55.2,52.9,30.37,SSE,148,0.0,1.0,92,0.00,,,0.04,meteohub,2013-05-28 22:52:00,
2013-05-28 18:57:00,55.2,52.9,30.37,SSE,148,0.0,1.0,92,0.01,,,0.05,meteohub,2013-05-28 22:57:00,
2013-05-28 19:02:00,55.2,52.9,30.37,ESE,120,0.0,1.0,92,0.01,,,0.05,meteohub,2013-05-28 23:02:00,
2013-05-28 19:07:00,55.2,52.9,30.37,SSE,150,0.0,1.0,92,0.01,,,0.05,meteohub,2013-05-28 23:07:00,
2013-05-28 19:12:00,55.2,53.2,30.37,SSE,150,0.0,1.0,93,0.01,,,0.05,meteohub,2013-05-28 23:12:00,
2013-05-28 19:17:00,55.4,53.4,30.37,SE,131,1.0,1.0,93,0.01,,,0.05,meteohub,2013-05-28 23:17:00,
2013-05-28 19:22:00,55.2,53.2,30.37,WSW,238,0.0,2.0,93,0.01,,,0.05,meteohub,2013-05-28 23:22:00,
2013-05-28 19:27:00,55.2,53.2,30.37,WNW,288,0.0,2.0,93,0.01,,,0.05,meteohub,2013-05-28 23:27:00,
2013-05-28 19:32:00,55.0,53.1,30.37,WNW,300,0.0,2.0,93,0.01,,,0.05,meteohub,2013-05-28 23:32:00,
2013-05-28 19:37:00,55.2,53.2,30.37,SE,136,0.0,2.0,93,0.01,,,0.05,meteohub,2013-05-28 23:37:00,
2013-05-28 19:42:00,55.2,53.2,30.37,SE,126,0.0,2.0,93,0.01,,,0.05,meteohub,2013-05-28 23:42:00,
2013-05-28 19:47:00,55.2,53.2,30.37,SE,125,1.0,2.0,93,0.01,,,0.05,meteohub,2013-05-28 23:47:00,
2013-05-28 19:52:00,55.2,53.2,30.37,SSW,210,0.0,1.0,93,0.01,,,0.05,meteohub,2013-05-28 23:52:00,
2013-05-28 19:57:00,55.4,53.4,30.37,ESE,107,0.0,1.0,93,0.00,,,0.05,meteohub,2013-05-28 23:57:00,
2013-05-28 20:02:00,55.6,53.6,30.36,SE,134,0.0,2.0,93,0.00,,,0.05,meteohub,2013-05-29 00:02:00,
2013-05-28 20:07:00,55.6,53.6,30.36,SE,131,0.0,4.0,93,0.01,,,0.06,meteohub,2013-05-29 00:07:00,
2013-05-28 20:12:00,55.6,54.0,30.36,East,95,0.0,4.0,94,0.01,,,0.06,meteohub,2013-05-29 00:12:00,
2013-05-28 20:17:00,55.6,54.0,30.35,ESE,123,0.0,4.0,94,0.01,,,0.06,meteohub,2013-05-29 00:17:00,
2013-05-28 20:22:00,55.8,54.1,30.35,SSE,155,6.0,6.0,94,0.01,,,0.06,meteohub,2013-05-29 00:22:00,
2013-05-28 20:27:00,55.8,54.1,30.35,SSE,164,0.0,6.0,94,0.01,,,0.06,meteohub,2013-05-29 00:27:00,
2013-05-28 20:32:00,55.9,54.3,30.35,SSE,158,1.0,6.0,94,0.01,,,0.06,meteohub,2013-05-29 00:32:00,
2013-05-28 20:37:00,55.9,54.3,30.35,SE,142,0.0,6.0,94,0.01,,,0.06,meteohub,2013-05-29 00:37:00,
2013-05-28 20:42:00,55.9,54.3,30.35,South,171,0.0,4.0,94,0.01,,,0.06,meteohub,2013-05-29 00:42:00,
2013-05-28 20:47:00,55.9,54.3,30.35,ENE,64,4.0,4.0,94,0.01,,,0.06,meteohub,2013-05-29 00:47:00,
2013-05-28 20:52:00,56.1,54.5,30.35,West,277,1.0,4.0,94,0.01,,,0.06,meteohub,2013-05-29 00:52:00,
2013-05-28 20:57:00,56.1,54.5,30.35,NNW,348,1.0,4.0,94,0.01,,,0.06,meteohub,2013-05-29 00:57:00,
2013-05-28 21:02:00,56.1,54.5,30.35,NW,311,1.0,4.0,94,0.00,,,0.06,meteohub,2013-05-29 01:02:00,
2013-05-28 21:07:00,56.1,54.5,30.35,West,281,2.0,4.0,94,0.00,,,0.06,meteohub,2013-05-29 01:07:00,
2013-05-28 21:12:00,56.3,54.7,30.35,NW,311,2.0,3.0,94,0.00,,,0.06,meteohub,2013-05-29 01:12:00,
2013-05-28 21:17:00,56.3,54.7,30.35,NNE,16,1.0,5.0,94,0.01,,,0.07,meteohub,2013-05-29 01:17:00,
2013-05-28 21:22:00,56.3,54.7,30.35,SSE,151,0.0,5.0,94,0.01,,,0.07,meteohub,2013-05-29 01:22:00,
2013-05-28 21:27:00,56.5,54.9,30.35,SSE,157,0.0,5.0,94,0.01,,,0.07,meteohub,2013-05-29 01:27:00,
2013-05-28 21:32:00,56.5,54.9,30.35,WSW,258,1.0,8.0,94,0.01,,,0.07,meteohub,2013-05-29 01:32:00,
2013-05-28 21:37:00,56.5,54.9,30.35,SE,142,2.0,8.0,94,0.01,,,0.07,meteohub,2013-05-29 01:37:00,
2013-05-28 21:42:00,56.5,54.9,30.35,SSE,148,0.0,8.0,94,0.01,,,0.07,meteohub,2013-05-29 01:42:00,
2013-05-28 21:47:00,56.5,54.9,30.35,SSE,153,3.0,6.0,94,0.01,,,0.07,meteohub,2013-05-29 01:47:00,
2013-05-28 21:52:00,56.5,54.9,30.35,SSE,158,0.0,7.0,94,0.01,,,0.07,meteohub,2013-05-29 01:52:00,
2013-05-28 21:57:00,56.5,54.9,30.35,SSE,148,2.0,7.0,94,0.01,,,0.07,meteohub,2013-05-29 01:57:00,
2013-05-28 22:02:00,56.5,54.9,30.35,SW,222,1.0,5.0,94,0.01,,,0.07,meteohub,2013-05-29 02:02:00,
2013-05-28 22:07:00,56.5,54.9,30.36,South,176,2.0,4.0,94,0.01,,,0.07,meteohub,2013-05-29 02:07:00,
2013-05-28 22:12:00,56.5,54.9,30.36,SE,125,0.0,6.0,94,0.01,,,0.07,meteohub,2013-05-29 02:12:00,
2013-05-28 22:17:00,56.5,54.9,30.35,ENE,74,0.0,6.0,94,0.00,,,0.07,meteohub,2013-05-29 02:17:00,
2013-05-28 22:22:00,56.5,54.9,30.35,East,81,3.0,5.0,94,0.00,,,0.07,meteohub,2013-05-29 02:22:00,
2013-05-28 22:27:00,56.3,54.7,30.35,West,279,0.0,5.0,94,0.00,,,0.07,meteohub,2013-05-29 02:27:00,
2013-05-28 22:32:00,56.3,54.7,30.35,SE,131,0.0,5.0,94,0.00,,,0.07,meteohub,2013-05-29 02:32:00,
2013-05-28 22:37:00,56.3,54.7,30.35,East,94,1.0,6.0,94,0.00,,,0.07,meteohub,2013-05-29 02:37:00,
2013-05-28 22:42:00,56.1,54.5,30.35,ESE,115,1.0,6.0,94,0.00,,,0.07,meteohub,2013-05-29 02:42:00,
2013-05-28 22:47:00,56.1,54.5,30.35,West,274,0.0,7.0,94,0.00,,,0.07,meteohub,2013-05-29 02:47:00,
2013-05-28 22:52:00,56.1,54.5,30.35,SE,136,0.0,7.0,94,0.00,,,0.07,meteohub,2013-05-29 02:52:00,
2013-05-28 22:57:00,56.1,54.5,30.35,North,9,0.0,7.0,94,0.00,,,0.07,meteohub,2013-05-29 02:57:00,
2013-05-28 23:02:00,55.9,54.3,30.35,East,89,0.0,6.0,94,0.00,,,0.07,meteohub,2013-05-29 03:02:00,
2013-05-28 23:07:00,55.9,54.3,30.35,SSW,193,0.0,6.0,94,0.00,,,0.07,meteohub,2013-05-29 03:07:00,
2013-05-28 23:12:00,55.9,54.3,30.35,WNW,287,0.0,6.0,94,0.00,,,0.07,meteohub,2013-05-29 03:12:00,
2013-05-28 23:17:00,55.9,54.3,30.35,East,98,0.0,6.0,94,0.00,,,0.07,meteohub,2013-05-29 03:17:00,
2013-05-28 23:22:00,55.9,54.3,30.34,SW,215,0.0,3.0,94,0.00,,,0.07,meteohub,2013-05-29 03:22:00,
2013-05-28 23:27:00,55.8,54.1,30.34,SE,125,3.0,4.0,94,0.00,,,0.07,meteohub,2013-05-29 03:27:00,
2013-05-28 23:32:00,55.8,54.1,30.35,ESE,102,0.0,4.0,94,0.00,,,0.07,meteohub,2013-05-29 03:32:00,
2013-05-28 23:37:00,55.8,54.1,30.35,NW,322,1.0,4.0,94,0.00,,,0.07,meteohub,2013-05-29 03:37:00,
2013-05-28 23:42:00,55.8,54.1,30.35,NW,305,0.0,4.0,94,0.00,,,0.07,meteohub,2013-05-29 03:42:00,
2013-05-28 23:47:00,55.8,54.1,30.35,ESE,120,1.0,2.0,94,0.00,,,0.07,meteohub,2013-05-29 03:47:00,
2013-05-28 23:52:00,55.8,54.1,30.35,SSE,163,0.0,3.0,94,0.00,,,0.07,meteohub,2013-05-29 03:52:00,
2013-05-28 23:57:00,55.6,54.0,30.35,East,98,0.0,3.0,94,0.00,,,0.07,meteohub,2013-05-29 03:57:00,